sensor_id;sensor_type;location;lat;lon;timestamp;pressure;altitude;pressure_sealevel;temperature;humidity
42691;BME280;28306;55.744;37.578;2022-08-01T00:01:04;100103.13;;;26.52;32.88
42691;BME280;28306;55.744;37.578;2022-08-01T00:03:30;100111.03;;;26.54;32.87
42691;BME280;28306;55.744;37.578;2022-08-01T00:05:55;100099.28;;;26.53;32.85
42691;BME280;28306;55.744;37.578;2022-08-01T00:08:21;100091.34;;;26.52;32.82
42691;BME280;28306;55.744;37.578;2022-08-01T00:10:47;100090.81;;;26.50;32.87
42691;BME280;28306;55.744;37.578;2022-08-01T00:13:12;100093.53;;;26.50;32.88
42691;BME280;28306;55.744;37.578;2022-08-01T00:15:38;100092.72;;;26.49;32.92
42691;BME280;28306;55.744;37.578;2022-08-01T00:18:03;100094.63;;;26.49;32.89
42691;BME280;28306;55.744;37.578;2022-08-01T00:20:29;100081.50;;;26.46;33.06
42691;BME280;28306;55.744;37.578;2022-08-01T00:22:55;100086.44;;;26.49;33.01
42691;BME280;28306;55.744;37.578;2022-08-01T00:25:20;100081.78;;;26.44;32.89
42691;BME280;28306;55.744;37.578;2022-08-01T00:27:46;100086.69;;;26.47;32.89
42691;BME280;28306;55.744;37.578;2022-08-01T00:30:12;100083.97;;;26.47;33.04
42691;BME280;28306;55.744;37.578;2022-08-01T00:32:37;100093.25;;;26.46;33.05
42691;BME280;28306;55.744;37.578;2022-08-01T00:35:03;100073.56;;;26.34;32.97
42691;BME280;28306;55.744;37.578;2022-08-01T00:37:29;100083.13;;;26.41;33.06
42691;BME280;28306;55.744;37.578;2022-08-01T00:39:54;100087.50;;;26.42;33.05
42691;BME280;28306;55.744;37.578;2022-08-01T00:42:20;100091.06;;;26.43;33.13
42691;BME280;28306;55.744;37.578;2022-08-01T00:44:46;100088.03;;;26.39;33.12
42691;BME280;28306;55.744;37.578;2022-08-01T00:47:12;100098.41;;;26.42;33.07
42691;BME280;28306;55.744;37.578;2022-08-01T00:49:37;100094.06;;;26.41;32.97
42691;BME280;28306;55.744;37.578;2022-08-01T00:52:04;100093.47;;;26.39;33.01
42691;BME280;28306;55.744;37.578;2022-08-01T00:54:31;100093.75;;;26.38;33.20
42691;BME280;28306;55.744;37.578;2022-08-01T00:56:57;100101.66;;;26.39;33.20
42691;BME280;28306;55.744;37.578;2022-08-01T00:59:23;100099.19;;;26.38;33.11
42691;BME280;28306;55.744;37.578;2022-08-01T01:01:49;100091.00;;;26.38;33.23
42691;BME280;28306;55.744;37.578;2022-08-01T01:04:16;100103.03;;;26.37;32.99
42691;BME280;28306;55.744;37.578;2022-08-01T01:06:58;100094.00;;;26.36;33.09
42691;BME280;28306;55.744;37.578;2022-08-01T01:15:10;100091.84;;;26.33;33.29
42691;BME280;28306;55.744;37.578;2022-08-01T01:17:41;100083.91;;;26.32;33.10
42691;BME280;28306;55.744;37.578;2022-08-01T01:20:13;100085.53;;;26.33;33.28
42691;BME280;28306;55.744;37.578;2022-08-01T01:29:00;100086.38;;;26.33;33.34
42691;BME280;28306;55.744;37.578;2022-08-01T01:31:27;100081.13;;;26.26;33.41
42691;BME280;28306;55.744;37.578;2022-08-01T01:33:55;100092.88;;;26.27;33.32
42691;BME280;28306;55.744;37.578;2022-08-01T01:36:25;100079.47;;;26.20;33.49
42691;BME280;28306;55.744;37.578;2022-08-01T01:38:52;100088.78;;;26.24;33.39
42691;BME280;28306;55.744;37.578;2022-08-01T01:41:20;100089.59;;;26.25;33.48
42691;BME280;28306;55.744;37.578;2022-08-01T01:43:46;100094.22;;;26.24;33.33
42691;BME280;28306;55.744;37.578;2022-08-01T01:46:17;100094.22;;;26.24;33.44
42691;BME280;28306;55.744;37.578;2022-08-01T01:48:45;100084.91;;;26.20;33.17
42691;BME280;28306;55.744;37.578;2022-08-01T01:51:13;100085.75;;;26.21;33.52
42691;BME280;28306;55.744;37.578;2022-08-01T01:53:40;100084.91;;;26.20;33.29
42691;BME280;28306;55.744;37.578;2022-08-01T01:56:08;100089.56;;;26.20;33.36
42691;BME280;28306;55.744;37.578;2022-08-01T01:58:35;100079.19;;;26.17;33.50
42691;BME280;28306;55.744;37.578;2022-08-01T02:01:04;100083.59;;;26.23;33.56
42691;BME280;28306;55.744;37.578;2022-08-01T02:03:32;100089.03;;;26.23;33.47
42691;BME280;28306;55.744;37.578;2022-08-01T02:06:02;100082.97;;;26.16;33.44
42691;BME280;28306;55.744;37.578;2022-08-01T02:08:29;100085.72;;;26.16;33.56
42691;BME280;28306;55.744;37.578;2022-08-01T02:10:56;100083.28;;;26.19;33.53
42691;BME280;28306;55.744;37.578;2022-08-01T02:13:41;100080.84;;;26.23;33.47
42691;BME280;28306;55.744;37.578;2022-08-01T02:16:08;100084.91;;;26.20;33.47
42691;BME280;28306;55.744;37.578;2022-08-01T02:18:36;100080.31;;;26.21;33.66
42691;BME280;28306;55.744;37.578;2022-08-01T02:21:04;100083.28;;;26.19;33.60
42691;BME280;28306;55.744;37.578;2022-08-01T02:23:36;100076.72;;;26.15;33.61
42691;BME280;28306;55.744;37.578;2022-08-01T02:26:04;100086.84;;;26.20;33.66
42691;BME280;28306;55.744;37.578;2022-08-01T02:28:35;100068.00;;;26.13;33.49
42691;BME280;28306;55.744;37.578;2022-08-01T02:31:04;100075.63;;;26.16;33.75
42691;BME280;28306;55.744;37.578;2022-08-01T02:33:38;100078.38;;;26.21;33.70
42691;BME280;28306;55.744;37.578;2022-08-01T02:36:06;100087.38;;;26.22;33.54
42691;BME280;28306;55.744;37.578;2022-08-01T02:38:35;100086.84;;;26.20;33.43
42691;BME280;28306;55.744;37.578;2022-08-01T02:41:07;100087.38;;;26.22;33.70
42691;BME280;28306;55.744;37.578;2022-08-01T02:43:37;100085.50;;;26.22;33.73
42691;BME280;28306;55.744;37.578;2022-08-01T02:46:06;100086.84;;;26.20;33.48
42691;BME280;28306;55.744;37.578;2022-08-01T02:48:35;100083.84;;;26.21;33.59
42691;BME280;28306;55.744;37.578;2022-08-01T02:51:02;100072.91;;;26.16;33.44
42691;BME280;28306;55.744;37.578;2022-08-01T02:53:32;100085.22;;;26.24;33.54
42691;BME280;28306;55.744;37.578;2022-08-01T02:56:06;100085.78;;;26.26;33.41
42691;BME280;28306;55.744;37.578;2022-08-01T02:58:35;100080.06;;;26.28;33.54
42691;BME280;28306;55.744;37.578;2022-08-01T03:01:04;100088.25;;;26.28;33.57
42691;BME280;28306;55.744;37.578;2022-08-01T03:03:32;100072.94;;;26.21;33.30
42691;BME280;28306;55.744;37.578;2022-08-01T03:05:59;100086.34;;;26.28;33.44
42691;BME280;28306;55.744;37.578;2022-08-01T03:08:27;100084.44;;;26.29;33.62
42691;BME280;28306;55.744;37.578;2022-08-01T03:10:55;100071.28;;;26.20;33.64
42691;BME280;28306;55.744;37.578;2022-08-01T03:13:21;100070.22;;;26.21;33.40
42691;BME280;28306;55.744;37.578;2022-08-01T03:15:49;100092.38;;;26.30;33.64
42691;BME280;28306;55.744;37.578;2022-08-01T03:18:17;100085.25;;;26.29;33.54
42691;BME280;28306;55.744;37.578;2022-08-01T03:20:45;100087.16;;;26.29;33.62
42691;BME280;28306;55.744;37.578;2022-08-01T03:23:11;100092.91;;;26.32;33.41
42691;BME280;28306;55.744;37.578;2022-08-01T03:25:40;100080.31;;;26.26;33.46
42691;BME280;28306;55.744;37.578;2022-08-01T03:28:08;100091.53;;;26.35;33.41
42691;BME280;28306;55.744;37.578;2022-08-01T03:30:36;100092.38;;;26.35;33.42
42691;BME280;28306;55.744;37.578;2022-08-01T03:33:02;100083.94;;;26.37;33.46
42691;BME280;28306;55.744;37.578;2022-08-01T03:35:31;100086.41;;;26.38;33.38
42691;BME280;28306;55.744;37.578;2022-08-01T03:38:00;100086.41;;;26.38;33.43
42691;BME280;28306;55.744;37.578;2022-08-01T03:40:40;100067.00;;;26.35;33.06
42691;BME280;28306;55.744;37.578;2022-08-01T03:43:34;100082.63;;;26.44;33.26
42691;BME280;28306;55.744;37.578;2022-08-01T03:46:06;100069.44;;;26.36;33.26
42691;BME280;28306;55.744;37.578;2022-08-01T03:48:36;100075.78;;;26.42;33.31
42691;BME280;28306;55.744;37.578;2022-08-01T03:51:05;100065.38;;;26.39;33.38
42691;BME280;28306;55.744;37.578;2022-08-01T03:53:33;100073.84;;;26.42;33.26
42691;BME280;28306;55.744;37.578;2022-08-01T03:56:00;100074.69;;;26.43;33.29
42691;BME280;28306;55.744;37.578;2022-08-01T03:58:29;100068.13;;;26.44;33.34
42691;BME280;28306;55.744;37.578;2022-08-01T04:00:55;100076.03;;;26.46;33.52
42691;BME280;28306;55.744;37.578;2022-08-01T04:03:22;100076.03;;;26.46;33.33
42691;BME280;28306;55.744;37.578;2022-08-01T04:05:48;100037.22;;;26.28;33.31
42691;BME280;28306;55.744;37.578;2022-08-01T04:08:14;100062.66;;;26.44;33.31
42691;BME280;28306;55.744;37.578;2022-08-01T04:10:40;100061.34;;;26.47;33.36
42691;BME280;28306;55.744;37.578;2022-08-01T04:13:05;100062.97;;;26.48;33.25
42691;BME280;28306;55.744;37.578;2022-08-01T04:15:31;100065.66;;;26.42;33.34
42691;BME280;28306;55.744;37.578;2022-08-01T04:17:57;100073.38;;;26.51;33.18
42691;BME280;28306;55.744;37.578;2022-08-01T04:20:22;100071.72;;;26.50;33.33
42691;BME280;28306;55.744;37.578;2022-08-01T04:22:48;100063.25;;;26.46;33.19
42691;BME280;28306;55.744;37.578;2022-08-01T04:25:21;100066.25;;;26.44;33.33
42691;BME280;28306;55.744;37.578;2022-08-01T04:27:52;100069.00;;;26.55;33.32
42691;BME280;28306;55.744;37.578;2022-08-01T04:30:22;100075.28;;;26.55;33.18
42691;BME280;28306;55.744;37.578;2022-08-01T04:32:51;100074.19;;;26.56;33.26
42691;BME280;28306;55.744;37.578;2022-08-01T04:35:19;100074.75;;;26.58;33.36
42691;BME280;28306;55.744;37.578;2022-08-01T04:37:47;100061.88;;;26.49;33.22
42691;BME280;28306;55.744;37.578;2022-08-01T04:40:14;100071.78;;;26.60;33.25
42691;BME280;28306;55.744;37.578;2022-08-01T04:42:41;100074.22;;;26.61;33.17
42691;BME280;28306;55.744;37.578;2022-08-01T04:45:08;100076.69;;;26.63;33.22
42691;BME280;28306;55.744;37.578;2022-08-01T04:47:35;100076.44;;;26.65;33.21
42691;BME280;28306;55.744;37.578;2022-08-01T04:50:05;100063.84;;;26.58;33.45
42691;BME280;28306;55.744;37.578;2022-08-01T04:52:34;100071.78;;;26.60;33.19
42691;BME280;28306;55.744;37.578;2022-08-01T04:55:00;100066.59;;;26.64;33.28
42691;BME280;28306;55.744;37.578;2022-08-01T04:57:26;100072.84;;;26.64;33.23
42691;BME280;28306;55.744;37.578;2022-08-01T04:59:51;100075.34;;;26.66;33.46
42691;BME280;28306;55.744;37.578;2022-08-01T05:02:22;100072.03;;;26.64;33.45
42691;BME280;28306;55.744;37.578;2022-08-01T05:04:48;100082.75;;;26.70;33.32
42691;BME280;28306;55.744;37.578;2022-08-01T05:07:15;100086.00;;;26.72;33.39
42691;BME280;28306;55.744;37.578;2022-08-01T05:09:41;100083.28;;;26.72;33.57
42691;BME280;28306;55.744;37.578;2022-08-01T05:12:08;100084.94;;;26.73;33.58
42691;BME280;28306;55.744;37.578;2022-08-01T05:14:35;100085.22;;;26.72;33.62
42691;BME280;28306;55.744;37.578;2022-08-01T05:17:04;100085.47;;;26.75;33.66
42691;BME280;28306;55.744;37.578;2022-08-01T05:19:30;100069.09;;;26.65;33.76
42691;BME280;28306;55.744;37.578;2022-08-01T05:22:03;100089.59;;;26.78;33.56
42691;BME280;28306;55.744;37.578;2022-08-01T05:24:34;100084.13;;;26.78;33.57
42691;BME280;28306;55.744;37.578;2022-08-01T05:27:00;100084.94;;;26.78;33.49
42691;BME280;28306;55.744;37.578;2022-08-01T05:29:26;100081.69;;;26.82;33.43
42691;BME280;28306;55.744;37.578;2022-08-01T05:31:53;100077.28;;;26.75;33.44
42691;BME280;28306;55.744;37.578;2022-08-01T05:34:19;100081.69;;;26.82;33.43
42691;BME280;28306;55.744;37.578;2022-08-01T05:36:45;100077.34;;;26.81;33.42
42691;BME280;28306;55.744;37.578;2022-08-01T05:39:11;100075.16;;;26.83;33.37
42691;BME280;28306;55.744;37.578;2022-08-01T05:41:38;100077.59;;;26.84;33.15
42691;BME280;28306;55.744;37.578;2022-08-01T05:44:04;100074.06;;;26.84;33.29
42691;BME280;28306;55.744;37.578;2022-08-01T05:46:31;100080.63;;;26.88;33.05
42691;BME280;28306;55.744;37.578;2022-08-01T05:48:58;100078.72;;;26.88;33.14
42691;BME280;28306;55.744;37.578;2022-08-01T05:51:24;100072.41;;;26.88;33.21
42691;BME280;28306;55.744;37.578;2022-08-01T05:53:50;100073.00;;;26.90;33.18
42691;BME280;28306;55.744;37.578;2022-08-01T05:56:16;100057.41;;;26.85;33.26
42691;BME280;28306;55.744;37.578;2022-08-01T05:58:41;100071.34;;;26.94;33.18
42691;BME280;28306;55.744;37.578;2022-08-01T06:01:07;100067.25;;;26.91;33.13
42691;BME280;28306;55.744;37.578;2022-08-01T06:03:33;100059.06;;;26.91;33.14
42691;BME280;28306;55.744;37.578;2022-08-01T06:06:02;100070.81;;;26.97;33.24
42691;BME280;28306;55.744;37.578;2022-08-01T06:08:28;100062.63;;;26.97;33.08
42691;BME280;28306;55.744;37.578;2022-08-01T06:10:53;100068.34;;;27.01;33.17
42691;BME280;28306;55.744;37.578;2022-08-01T06:13:19;100059.09;;;26.96;33.21
42691;BME280;28306;55.744;37.578;2022-08-01T06:15:46;100071.66;;;27.03;33.29
42691;BME280;28306;55.744;37.578;2022-08-01T06:18:12;100074.13;;;27.04;33.15
42691;BME280;28306;55.744;37.578;2022-08-01T06:20:37;100044.84;;;26.89;33.01
42691;BME280;28306;55.744;37.578;2022-08-01T06:23:03;100065.38;;;27.07;32.97
42691;BME280;28306;55.744;37.578;2022-08-01T06:25:29;100061.28;;;27.05;33.00
42691;BME280;28306;55.744;37.578;2022-08-01T06:27:55;100067.28;;;27.07;32.90
42691;BME280;28306;55.744;37.578;2022-08-01T06:30:20;100074.94;;;27.10;32.90
42691;BME280;28306;55.744;37.578;2022-08-01T06:32:46;100072.78;;;27.12;32.92
42691;BME280;28306;55.744;37.578;2022-08-01T06:35:13;100076.31;;;27.07;32.92
42691;BME280;28306;55.744;37.578;2022-08-01T06:37:39;100081.50;;;27.14;32.94
42691;BME280;28306;55.744;37.578;2022-08-01T06:40:08;100081.50;;;27.14;32.82
42691;BME280;28306;55.744;37.578;2022-08-01T06:42:35;100077.97;;;27.13;32.28
42691;BME280;28306;55.744;37.578;2022-08-01T06:45:05;100073.84;;;27.16;31.88
42691;BME280;28306;55.744;37.578;2022-08-01T06:47:31;100086.44;;;27.17;31.82
42691;BME280;28306;55.744;37.578;2022-08-01T06:49:57;100080.97;;;27.17;31.81
42691;BME280;28306;55.744;37.578;2022-08-01T06:52:23;100080.97;;;27.17;31.54
42691;BME280;28306;55.744;37.578;2022-08-01T06:54:48;100081.78;;;27.18;31.68
42691;BME280;28306;55.744;37.578;2022-08-01T06:57:14;100089.69;;;27.19;31.46
42691;BME280;28306;55.744;37.578;2022-08-01T06:59:40;100092.44;;;27.19;31.16
42691;BME280;28306;55.744;37.578;2022-08-01T07:02:05;100093.53;;;27.18;31.21
42691;BME280;28306;55.744;37.578;2022-08-01T08:34:39;100070.09;;;27.68;29.70
42691;BME280;28306;55.744;37.578;2022-08-01T08:37:05;100068.19;;;27.64;30.11
42691;BME280;28306;55.744;37.578;2022-08-01T08:39:30;100048.25;;;27.48;29.78
42691;BME280;28306;55.744;37.578;2022-08-01T08:41:59;100060.81;;;27.59;29.59
42691;BME280;28306;55.744;37.578;2022-08-01T08:44:25;100060.00;;;27.59;29.54
42691;BME280;28306;55.744;37.578;2022-08-01T08:46:51;100058.34;;;27.63;29.72
42691;BME280;28306;55.744;37.578;2022-08-01T08:49:23;100058.34;;;27.63;29.48
42691;BME280;28306;55.744;37.578;2022-08-01T08:51:50;100055.06;;;27.66;29.65
42691;BME280;28306;55.744;37.578;2022-08-01T08:54:18;100059.44;;;27.67;29.51
42691;BME280;28306;55.744;37.578;2022-08-01T08:56:46;100055.59;;;27.68;29.39
42691;BME280;28306;55.744;37.578;2022-08-01T08:59:13;100043.59;;;27.69;29.49
42691;BME280;28306;55.744;37.578;2022-08-01T09:01:40;100050.69;;;27.70;29.42
42691;BME280;28306;55.744;37.578;2022-08-01T09:04:05;100053.97;;;27.72;29.37
42691;BME280;28306;55.744;37.578;2022-08-01T09:06:32;100045.78;;;27.67;29.35
42691;BME280;28306;55.744;37.578;2022-08-01T09:08:58;100051.78;;;27.74;29.28
42691;BME280;28306;55.744;37.578;2022-08-01T09:11:25;100034.28;;;27.70;29.04
42691;BME280;28306;55.744;37.578;2022-08-01T09:14:04;100041.94;;;27.78;28.96
42691;BME280;28306;55.744;37.578;2022-08-01T09:16:31;100045.75;;;27.77;28.95
42691;BME280;28306;55.744;37.578;2022-08-01T09:21:37;100043.59;;;27.79;28.97
42691;BME280;28306;55.744;37.578;2022-08-01T09:24:03;100043.03;;;27.82;28.82
42691;BME280;28306;55.744;37.578;2022-08-01T09:26:33;100040.84;;;27.84;28.79
42691;BME280;28306;55.744;37.578;2022-08-01T09:29:05;100030.16;;;27.88;28.77
42691;BME280;28306;55.744;37.578;2022-08-01T09:31:40;100040.25;;;27.93;28.93
42691;BME280;28306;55.744;37.578;2022-08-01T09:34:07;100044.41;;;27.95;28.76
42691;BME280;28306;55.744;37.578;2022-08-01T09:36:57;100043.28;;;28.01;28.92
42691;BME280;28306;55.744;37.578;2022-08-01T09:39:25;100038.91;;;28.00;28.71
42691;BME280;28306;55.744;37.578;2022-08-01T09:41:55;100029.06;;;27.94;28.75
42691;BME280;28306;55.744;37.578;2022-08-01T09:44:37;100046.03;;;28.01;28.63
42691;BME280;28306;55.744;37.578;2022-08-01T09:47:03;100032.06;;;27.93;28.52
42691;BME280;28306;55.744;37.578;2022-08-01T09:49:37;100035.94;;;27.97;28.51
42691;BME280;28306;55.744;37.578;2022-08-01T09:52:29;100037.00;;;28.01;28.59
42691;BME280;28306;55.744;37.578;2022-08-01T09:54:57;100028.78;;;27.91;28.70
42691;BME280;28306;55.744;37.578;2022-08-01T09:57:24;100022.50;;;27.85;28.50
42691;BME280;28306;55.744;37.578;2022-08-01T09:59:53;100027.44;;;27.93;28.52
42691;BME280;28306;55.744;37.578;2022-08-01T10:02:32;100030.44;;;27.97;28.60
42691;BME280;28306;55.744;37.578;2022-08-01T10:04:59;100021.44;;;27.96;28.43
42691;BME280;28306;55.744;37.578;2022-08-01T10:07:25;100004.47;;;27.89;28.63
42691;BME280;28306;55.744;37.578;2022-08-01T10:09:51;100027.19;;;27.95;28.54
42691;BME280;28306;55.744;37.578;2022-08-01T10:12:20;100022.78;;;27.94;28.49
42691;BME280;28306;55.744;37.578;2022-08-01T10:14:48;100006.09;;;27.85;28.46
42691;BME280;28306;55.744;37.578;2022-08-01T10:17:18;100007.47;;;27.87;28.59
42691;BME280;28306;55.744;37.578;2022-08-01T10:19:44;100020.59;;;27.96;28.41
42691;BME280;28306;55.744;37.578;2022-08-01T10:22:12;100020.59;;;27.96;28.36
42691;BME280;28306;55.744;37.578;2022-08-01T10:24:44;100012.09;;;27.92;28.49
42691;BME280;28306;55.744;37.578;2022-08-01T10:27:13;100019.78;;;28.00;28.22
42691;BME280;28306;55.744;37.578;2022-08-01T10:29:59;100019.19;;;28.09;28.40
42691;BME280;28306;55.744;37.578;2022-08-01T10:32:30;100019.19;;;28.09;28.06
42691;BME280;28306;55.744;37.578;2022-08-01T10:34:56;100018.63;;;28.12;27.86
42691;BME280;28306;55.744;37.578;2022-08-01T10:37:23;100020.81;;;28.15;28.08
42691;BME280;28306;55.744;37.578;2022-08-01T10:39:51;100016.16;;;28.20;27.81
42691;BME280;28306;55.744;37.578;2022-08-01T10:42:17;100028.19;;;28.25;27.74
42691;BME280;28306;55.744;37.578;2022-08-01T10:44:44;100018.59;;;28.27;27.67
42691;BME280;28306;55.744;37.578;2022-08-01T10:47:14;100018.59;;;28.27;27.82
42691;BME280;28306;55.744;37.578;2022-08-01T10:49:47;100009.00;;;28.30;27.61
42691;BME280;28306;55.744;37.578;2022-08-01T10:52:20;100001.59;;;28.40;27.84
42691;BME280;28306;55.744;37.578;2022-08-01T10:54:46;100004.56;;;28.44;27.66
42691;BME280;28306;55.744;37.578;2022-08-01T10:57:13;100007.59;;;28.43;27.76
42691;BME280;28306;55.744;37.578;2022-08-01T10:59:49;99998.00;;;28.40;27.91
42691;BME280;28306;55.744;37.578;2022-08-01T11:02:32;100006.22;;;28.45;27.86
42691;BME280;28306;55.744;37.578;2022-08-01T11:05:09;100003.19;;;28.41;27.64
42691;BME280;28306;55.744;37.578;2022-08-01T11:07:48;100001.31;;;28.42;27.61
42691;BME280;28306;55.744;37.578;2022-08-01T11:10:23;99997.75;;;28.36;27.46
42691;BME280;28306;55.744;37.578;2022-08-01T11:12:50;100003.78;;;28.33;27.61
42691;BME280;28306;55.744;37.578;2022-08-01T11:15:18;99999.72;;;28.26;27.48
42691;BME280;28306;55.744;37.578;2022-08-01T11:17:51;99995.09;;;28.26;27.69
42691;BME280;28306;55.744;37.578;2022-08-01T11:20:23;99995.88;;;28.27;27.90
42691;BME280;28306;55.744;37.578;2022-08-01T11:30:51;99986.03;;;28.26;27.74
42691;BME280;28306;55.744;37.578;2022-08-01T11:33:19;99978.94;;;28.25;27.71
42691;BME280;28306;55.744;37.578;2022-08-01T11:52:32;99965.41;;;28.59;27.08
42691;BME280;28306;55.744;37.578;2022-08-01T11:57:29;99946.56;;;28.42;26.83
42691;BME280;28306;55.744;37.578;2022-08-01T11:59:58;99954.16;;;28.61;27.03
42691;BME280;28306;55.744;37.578;2022-08-01T12:04:52;99956.19;;;29.53;26.33
42691;BME280;28306;55.744;37.578;2022-08-01T12:07:18;99963.69;;;29.42;26.38
42691;BME280;28306;55.744;37.578;2022-08-01T12:09:44;99937.88;;;29.14;26.75
42691;BME280;28306;55.744;37.578;2022-08-01T12:12:15;99953.31;;;29.00;27.11
42691;BME280;28306;55.744;37.578;2022-08-01T12:14:53;99953.69;;;28.88;27.34
42691;BME280;28306;55.744;37.578;2022-08-01T12:17:33;99953.50;;;28.74;27.66
42691;BME280;28306;55.744;37.578;2022-08-01T12:20:00;99956.56;;;28.67;27.79
42691;BME280;28306;55.744;37.578;2022-08-01T12:22:26;99943.75;;;28.57;27.91
42691;BME280;28306;55.744;37.578;2022-08-01T12:24:51;99945.38;;;28.58;27.98
42691;BME280;28306;55.744;37.578;2022-08-01T12:27:30;99961.25;;;28.62;28.08
42691;BME280;28306;55.744;37.578;2022-08-01T12:29:57;99957.72;;;28.56;28.12
42691;BME280;28306;55.744;37.578;2022-08-01T12:32:28;99954.13;;;28.55;28.15
42691;BME280;28306;55.744;37.578;2022-08-01T12:35:11;99954.44;;;28.59;28.22
42691;BME280;28306;55.744;37.578;2022-08-01T12:37:45;99947.84;;;28.60;28.32
42691;BME280;28306;55.744;37.578;2022-08-01T12:42:52;99950.84;;;28.64;28.51
42691;BME280;28306;55.744;37.578;2022-08-01T12:45:21;99949.13;;;28.78;28.16
42691;BME280;28306;55.744;37.578;2022-08-01T12:47:49;99949.34;;;28.82;28.00
42691;BME280;28306;55.744;37.578;2022-08-01T12:50:18;99948.00;;;28.79;28.33
42691;BME280;28306;55.744;37.578;2022-08-01T12:52:45;99915.00;;;28.94;27.77
42691;BME280;28306;55.744;37.578;2022-08-01T12:57:41;99932.28;;;28.95;27.80
42691;BME280;28306;55.744;37.578;2022-08-01T13:02:39;99932.00;;;28.97;28.01
42691;BME280;28306;55.744;37.578;2022-08-01T13:05:06;99928.41;;;28.96;27.95
42691;BME280;28306;55.744;37.578;2022-08-01T13:07:47;99921.91;;;30.47;26.34
42691;BME280;28306;55.744;37.578;2022-08-01T13:10:14;99920.63;;;31.99;24.38
42691;BME280;28306;55.744;37.578;2022-08-01T13:12:51;99916.22;;;32.99;23.39
42691;BME280;28306;55.744;37.578;2022-08-01T13:17:47;99915.50;;;34.27;21.98
42691;BME280;28306;55.744;37.578;2022-08-01T13:20:27;99914.03;;;34.65;21.59
42691;BME280;28306;55.744;37.578;2022-08-01T13:22:53;99904.78;;;34.96;21.00
42691;BME280;28306;55.744;37.578;2022-08-01T13:25:19;99906.56;;;34.30;21.32
42691;BME280;28306;55.744;37.578;2022-08-01T13:27:45;99913.59;;;33.97;22.01
42691;BME280;28306;55.744;37.578;2022-08-01T13:30:20;99914.16;;;34.16;21.78
42691;BME280;28306;55.744;37.578;2022-08-01T13:32:59;99901.88;;;34.48;21.56
42691;BME280;28306;55.744;37.578;2022-08-01T13:35:26;99903.00;;;34.91;20.95
42691;BME280;28306;55.744;37.578;2022-08-01T13:37:52;99913.81;;;35.14;20.69
42691;BME280;28306;55.744;37.578;2022-08-01T13:40:25;99909.91;;;35.32;20.70
42691;BME280;28306;55.744;37.578;2022-08-01T13:42:51;99906.59;;;35.48;20.38
42691;BME280;28306;55.744;37.578;2022-08-01T13:45:17;99902.75;;;35.61;20.38
42691;BME280;28306;55.744;37.578;2022-08-01T13:47:43;99915.75;;;35.78;20.13
42691;BME280;28306;55.744;37.578;2022-08-01T13:50:09;99911.81;;;35.88;20.00
42691;BME280;28306;55.744;37.578;2022-08-01T13:52:35;99908.19;;;35.87;19.93
42691;BME280;28306;55.744;37.578;2022-08-01T13:55:01;99910.63;;;35.89;20.07
42691;BME280;28306;55.744;37.578;2022-08-01T13:57:27;99916.19;;;35.89;19.83
42691;BME280;28306;55.744;37.578;2022-08-01T13:59:53;99915.56;;;35.45;20.40
42691;BME280;28306;55.744;37.578;2022-08-01T14:02:19;99919.03;;;35.15;20.81
42691;BME280;28306;55.744;37.578;2022-08-01T14:04:45;99921.16;;;35.27;20.54
42691;BME280;28306;55.744;37.578;2022-08-01T14:07:11;99920.63;;;35.43;20.20
42691;BME280;28306;55.744;37.578;2022-08-01T14:09:37;99919.97;;;35.37;20.23
42691;BME280;28306;55.744;37.578;2022-08-01T14:12:03;99919.06;;;34.98;20.55
42691;BME280;28306;55.744;37.578;2022-08-01T14:14:29;99909.44;;;34.17;21.44
42691;BME280;28306;55.744;37.578;2022-08-01T14:16:55;99907.41;;;33.73;21.80
42691;BME280;28306;55.744;37.578;2022-08-01T14:19:21;99919.13;;;33.97;21.80
42691;BME280;28306;55.744;37.578;2022-08-01T14:21:47;99915.66;;;34.31;21.32
42691;BME280;28306;55.744;37.578;2022-08-01T14:24:12;99909.19;;;34.53;21.38
42691;BME280;28306;55.744;37.578;2022-08-01T14:26:38;99916.66;;;34.79;21.06
42691;BME280;28306;55.744;37.578;2022-08-01T14:29:04;99909.03;;;34.85;20.84
42691;BME280;28306;55.744;37.578;2022-08-01T14:31:30;99915.97;;;34.91;20.70
42691;BME280;28306;55.744;37.578;2022-08-01T14:33:55;99898.75;;;34.68;21.04
42691;BME280;28306;55.744;37.578;2022-08-01T14:36:21;99915.03;;;34.78;21.18
42691;BME280;28306;55.744;37.578;2022-08-01T14:38:47;99911.59;;;34.81;20.91
42691;BME280;28306;55.744;37.578;2022-08-01T14:41:14;99920.53;;;34.60;21.07
42691;BME280;28306;55.744;37.578;2022-08-01T14:43:39;99897.28;;;34.53;21.30
42691;BME280;28306;55.744;37.578;2022-08-01T14:46:05;99882.69;;;34.35;21.24
42691;BME280;28306;55.744;37.578;2022-08-01T14:48:33;99907.38;;;34.40;21.39
42691;BME280;28306;55.744;37.578;2022-08-01T14:50:58;99916.16;;;34.33;21.26
42691;BME280;28306;55.744;37.578;2022-08-01T14:53:28;99883.75;;;34.07;21.23
42691;BME280;28306;55.744;37.578;2022-08-01T14:55:54;99915.41;;;34.01;21.61
42691;BME280;28306;55.744;37.578;2022-08-01T14:58:19;99901.94;;;34.00;21.70
42691;BME280;28306;55.744;37.578;2022-08-01T15:00:45;99896.25;;;33.87;21.45
42691;BME280;28306;55.744;37.578;2022-08-01T15:03:11;99889.53;;;33.39;22.17
42691;BME280;28306;55.744;37.578;2022-08-01T15:05:38;99879.41;;;32.72;22.60
42691;BME280;28306;55.744;37.578;2022-08-01T15:08:05;99904.09;;;32.41;22.99
42691;BME280;28306;55.744;37.578;2022-08-01T15:10:31;99903.94;;;32.09;23.60
42691;BME280;28306;55.744;37.578;2022-08-01T15:12:58;99904.56;;;31.78;23.99